createdAt,value
2018-03-16T00:00:25.370Z,0
2018-03-16T00:01:35.333Z,0
2018-03-16T00:02:45.542Z,0
2018-03-16T00:03:55.492Z,0
2018-03-16T00:05:04.942Z,0
2018-03-16T00:06:14.919Z,0
2018-03-16T00:07:24.914Z,0
2018-03-16T00:08:34.620Z,0
2018-03-16T00:09:44.094Z,0
2018-03-16T00:10:53.522Z,0
2018-03-16T00:12:02.971Z,0
2018-03-16T00:13:13.190Z,0
2018-03-16T00:14:22.888Z,0
2018-03-16T00:15:32.343Z,0
2018-03-16T00:16:42.307Z,0
2018-03-16T00:17:52.034Z,0
2018-03-16T00:19:01.736Z,0
2018-03-16T00:20:11.721Z,0
2018-03-16T00:21:21.677Z,0
2018-03-16T00:22:31.372Z,0
2018-03-16T00:23:40.819Z,0
2018-03-16T00:24:50.524Z,0
2018-03-16T00:26:00.217Z,0
2018-03-16T00:27:10.190Z,0
2018-03-16T00:28:20.147Z,0
2018-03-16T00:29:29.898Z,0
2018-03-16T00:30:39.340Z,0
2018-03-16T00:31:49.031Z,0
2018-03-16T00:32:58.470Z,0
2018-03-16T00:34:07.655Z,0
2018-03-16T00:35:17.616Z,0
2018-03-16T00:36:27.312Z,0
2018-03-16T00:37:36.753Z,0
2018-03-16T00:38:46.193Z,0
2018-03-16T00:39:56.144Z,0
2018-03-16T00:41:05.326Z,0
2018-03-16T00:42:15.303Z,0
2018-03-16T00:43:24.740Z,0
2018-03-16T00:44:34.692Z,0
2018-03-16T00:45:44.138Z,0
2018-03-16T00:46:54.095Z,0
2018-03-16T00:48:03.789Z,0
2018-03-16T00:49:13.541Z,0
2018-03-16T00:50:23.778Z,0
2018-03-16T00:51:33.750Z,0
2018-03-16T00:52:43.709Z,0
2018-03-16T00:53:53.420Z,0
2018-03-16T00:55:03.378Z,0
2018-03-16T00:56:12.814Z,0
2018-03-16T00:57:22.778Z,0
2018-03-16T00:58:32.469Z,0
2018-03-16T00:59:42.434Z,0
2018-03-16T01:00:52.648Z,0
2018-03-16T01:02:02.342Z,0
2018-03-16T01:03:12.293Z,0
2018-03-16T01:04:21.995Z,0
2018-03-16T01:05:31.966Z,0
2018-03-16T01:06:41.676Z,0
2018-03-16T01:07:51.372Z,0
2018-03-16T01:09:01.334Z,0
2018-03-16T01:10:11.030Z,0
2018-03-16T01:11:20.723Z,0
2018-03-16T01:12:30.674Z,0
2018-03-16T01:13:40.628Z,0
2018-03-16T01:14:50.319Z,0
2018-03-16T01:16:00.269Z,0
2018-03-16T01:17:09.993Z,0
2018-03-16T01:18:19.700Z,0
2018-03-16T01:19:29.407Z,0
2018-03-16T01:20:39.354Z,0
2018-03-16T01:21:49.048Z,0
2018-03-16T01:22:59.009Z,0
2018-03-16T01:24:08.449Z,0
2018-03-16T01:25:17.882Z,0
2018-03-16T01:26:27.312Z,0
2018-03-16T01:27:36.999Z,0
2018-03-16T01:28:46.696Z,0
2018-03-16T01:29:56.711Z,0
2018-03-16T01:31:06.674Z,0
2018-03-16T01:32:16.379Z,0
2018-03-16T01:33:26.074Z,0
2018-03-16T01:34:36.083Z,0
2018-03-16T01:35:45.525Z,0
2018-03-16T01:36:54.982Z,0
2018-03-16T01:38:04.671Z,0
2018-03-16T01:39:14.645Z,0
2018-03-16T01:40:24.080Z,0
2018-03-16T01:41:33.542Z,0
2018-03-16T01:42:42.971Z,0
2018-03-16T01:43:52.918Z,0
2018-03-16T01:45:02.355Z,0
2018-03-16T01:46:11.794Z,0
2018-03-16T01:47:21.757Z,0
2018-03-16T01:48:30.940Z,0
2018-03-16T01:49:40.393Z,0
2018-03-16T01:50:50.095Z,0
2018-03-16T01:51:59.790Z,0
2018-03-16T01:53:09.502Z,0
2018-03-16T01:54:19.463Z,0
2018-03-16T01:55:28.901Z,0
2018-03-16T01:56:38.863Z,0
2018-03-16T01:57:48.823Z,0
2018-03-16T01:58:58.516Z,0
2018-03-16T02:00:07.957Z,0
2018-03-16T02:01:17.911Z,0
2018-03-16T02:02:27.872Z,0
2018-03-16T02:03:37.839Z,0
2018-03-16T02:04:47.272Z,0
2018-03-16T02:05:57.227Z,0
2018-03-16T02:07:07.177Z,0
2018-03-16T02:08:16.629Z,0
2018-03-16T02:09:26.581Z,0
2018-03-16T02:10:36.289Z,0
2018-03-16T02:11:46.268Z,0
2018-03-16T02:12:55.975Z,0
2018-03-16T02:14:05.426Z,0
2018-03-16T02:15:15.124Z,0
2018-03-16T02:16:25.078Z,0
2018-03-16T02:17:34.779Z,0
2018-03-16T02:18:44.207Z,0
2018-03-16T02:19:53.894Z,0
2018-03-16T02:21:03.593Z,0
2018-03-16T02:22:13.035Z,0
2018-03-16T02:23:22.992Z,0
2018-03-16T02:24:32.687Z,0
2018-03-16T02:25:42.639Z,0
2018-03-16T02:26:52.337Z,0
2018-03-16T02:28:02.075Z,0
2018-03-16T02:29:11.774Z,0
2018-03-16T02:30:21.782Z,0
2018-03-16T02:31:31.483Z,0
2018-03-16T02:32:41.457Z,0
2018-03-16T02:33:51.152Z,0
2018-03-16T02:35:01.104Z,0
2018-03-16T02:36:11.310Z,0
2018-03-16T02:37:21.007Z,0
2018-03-16T02:38:30.714Z,0
2018-03-16T02:39:40.160Z,0
2018-03-16T02:40:49.614Z,0
2018-03-16T02:41:59.581Z,0
2018-03-16T02:43:09.271Z,0
2018-03-16T02:44:19.025Z,0
2018-03-16T02:45:28.407Z,0
2018-03-16T02:46:38.367Z,0
2018-03-16T02:47:48.329Z,0
2018-03-16T02:48:58.047Z,0
2018-03-16T02:50:08.025Z,0
2018-03-16T02:51:17.682Z,0
2018-03-16T02:52:27.649Z,0
2018-03-16T02:53:37.628Z,0
2018-03-16T02:54:47.597Z,0
2018-03-16T02:55:57.306Z,0
2018-03-16T02:57:07.263Z,0
2018-03-16T02:58:17.238Z,0
2018-03-16T02:59:26.668Z,0
2018-03-16T03:00:35.854Z,0
2018-03-16T03:01:45.296Z,0
2018-03-16T03:02:55.249Z,0
2018-03-16T03:04:04.959Z,0
2018-03-16T03:05:14.916Z,0
2018-03-16T03:06:24.624Z,0
2018-03-16T03:07:34.339Z,0
2018-03-16T03:08:44.042Z,0
2018-03-16T03:09:54.009Z,0
2018-03-16T03:11:03.969Z,0
2018-03-16T03:12:13.406Z,0
2018-03-16T03:13:23.119Z,0
2018-03-16T03:14:33.073Z,0
2018-03-16T03:15:42.765Z,0
2018-03-16T03:16:52.974Z,0
2018-03-16T03:18:02.662Z,0
2018-03-16T03:19:12.095Z,0
2018-03-16T03:20:22.055Z,0
2018-03-16T03:21:32.005Z,0
2018-03-16T03:22:41.955Z,0
2018-03-16T03:23:51.913Z,0
2018-03-16T03:25:01.594Z,0
2018-03-16T03:26:11.553Z,0
2018-03-16T03:27:21.503Z,0
2018-03-16T03:28:30.939Z,0
2018-03-16T03:29:40.639Z,0
2018-03-16T03:30:50.100Z,0
2018-03-16T03:31:59.795Z,0
2018-03-16T03:33:09.492Z,0
2018-03-16T03:34:19.559Z,0
2018-03-16T03:35:29.260Z,0
2018-03-16T03:36:39.271Z,0
2018-03-16T03:37:49.483Z,0
2018-03-16T03:38:59.440Z,0
2018-03-16T03:40:09.397Z,0
2018-03-16T03:41:19.092Z,0
2018-03-16T03:42:29.050Z,0
2018-03-16T03:43:39.032Z,0
2018-03-16T03:44:48.982Z,0
2018-03-16T03:45:58.669Z,0
2018-03-16T03:47:08.630Z,0
2018-03-16T03:48:18.332Z,0
2018-03-16T03:49:28.276Z,0
2018-03-16T03:50:38.224Z,0
2018-03-16T03:51:48.185Z,0
2018-03-16T03:52:58.148Z,0
2018-03-16T03:54:08.097Z,0
2018-03-16T03:55:18.052Z,0
2018-03-16T03:56:28.004Z,0
2018-03-16T03:57:37.960Z,0
2018-03-16T03:58:48.017Z,0
2018-03-16T03:59:57.990Z,0
2018-03-16T04:01:07.944Z,0
2018-03-16T04:02:17.648Z,0
2018-03-16T04:03:27.090Z,0
2018-03-16T04:04:36.524Z,0
2018-03-16T04:05:46.482Z,0
2018-03-16T04:06:55.917Z,0
2018-03-16T04:08:05.689Z,0
2018-03-16T04:09:15.387Z,0
2018-03-16T04:10:24.830Z,0
2018-03-16T04:11:34.784Z,0
2018-03-16T04:12:44.750Z,0
2018-03-16T04:13:54.703Z,0
2018-03-16T04:15:04.697Z,0
2018-03-16T04:16:14.663Z,0
2018-03-16T04:17:23.843Z,0
2018-03-16T04:18:33.797Z,0
2018-03-16T04:19:43.246Z,0
2018-03-16T04:20:52.943Z,0
2018-03-16T04:22:02.637Z,0
2018-03-16T04:23:12.601Z,0
2018-03-16T04:24:22.310Z,0
2018-03-16T04:25:32.317Z,0
2018-03-16T04:26:42.004Z,0
2018-03-16T04:27:51.697Z,0
2018-03-16T04:29:01.397Z,0
2018-03-16T04:30:11.104Z,0
2018-03-16T04:31:20.855Z,0
2018-03-16T04:32:30.334Z,0
2018-03-16T04:33:39.769Z,0
2018-03-16T04:34:49.788Z,0
2018-03-16T04:35:59.485Z,0
2018-03-16T04:37:08.674Z,0
2018-03-16T04:38:17.846Z,0
2018-03-16T04:39:27.283Z,0
2018-03-16T04:40:36.723Z,0
2018-03-16T04:41:46.692Z,0
2018-03-16T04:42:56.639Z,0
2018-03-16T04:44:06.082Z,0
2018-03-16T04:45:16.046Z,0
2018-03-16T04:46:25.993Z,0
2018-03-16T04:47:35.943Z,0
2018-03-16T04:48:45.911Z,0
2018-03-16T04:49:55.880Z,0
2018-03-16T04:51:05.589Z,0
2018-03-16T04:52:15.547Z,0
2018-03-16T04:53:25.252Z,0
2018-03-16T04:54:34.957Z,0
2018-03-16T04:55:44.911Z,0
2018-03-16T04:56:54.865Z,0
2018-03-16T04:58:04.871Z,0
2018-03-16T04:59:14.571Z,0
2018-03-16T05:00:24.272Z,0
2018-03-16T05:01:33.972Z,0
2018-03-16T05:02:43.417Z,0
2018-03-16T05:03:53.368Z,0
2018-03-16T05:05:03.073Z,0
2018-03-16T05:06:13.032Z,0
2018-03-16T05:07:22.727Z,0
2018-03-16T05:08:32.162Z,0
2018-03-16T05:09:42.121Z,0
2018-03-16T05:10:52.107Z,0
2018-03-16T05:12:02.075Z,0
2018-03-16T05:13:11.778Z,0
2018-03-16T05:14:21.485Z,0
2018-03-16T05:15:30.936Z,0
2018-03-16T05:16:39.852Z,0
2018-03-16T05:17:49.802Z,0
2018-03-16T05:18:59.761Z,0
2018-03-16T05:20:09.463Z,0
2018-03-16T05:21:19.432Z,0
2018-03-16T05:22:29.142Z,0
2018-03-16T05:23:39.110Z,0
2018-03-16T05:24:48.830Z,0
2018-03-16T05:25:58.274Z,0
2018-03-16T05:27:07.985Z,0
2018-03-16T05:28:17.682Z,0
2018-03-16T05:29:27.860Z,0
2018-03-16T05:30:37.885Z,0
2018-03-16T05:31:47.592Z,0
2018-03-16T05:32:57.296Z,5
2018-03-16T05:34:06.999Z,5
2018-03-16T05:35:16.445Z,5
2018-03-16T05:36:26.137Z,5
2018-03-16T05:37:35.583Z,5
2018-03-16T05:38:45.536Z,5
2018-03-16T05:39:55.492Z,5
2018-03-16T05:41:05.205Z,5
2018-03-16T05:42:14.920Z,5
2018-03-16T05:43:24.645Z,5
2018-03-16T05:44:34.612Z,5
2018-03-16T05:45:44.569Z,5
2018-03-16T05:46:54.277Z,10
2018-03-16T05:48:04.238Z,10
2018-03-16T05:49:13.988Z,10
2018-03-16T05:50:23.939Z,10
2018-03-16T05:51:33.394Z,10
2018-03-16T05:52:43.362Z,10
2018-03-16T05:53:53.069Z,10
2018-03-16T05:55:02.844Z,10
2018-03-16T05:56:12.807Z,10
2018-03-16T05:57:22.765Z,10
2018-03-16T05:58:32.469Z,10
2018-03-16T05:59:41.935Z,10
2018-03-16T06:00:51.838Z,10
2018-03-16T06:02:01.345Z,10
2018-03-16T06:03:11.294Z,10
2018-03-16T06:04:20.731Z,10
2018-03-16T06:05:30.703Z,10
2018-03-16T06:06:40.669Z,10
2018-03-16T06:07:50.371Z,10
2018-03-16T06:09:00.075Z,15
2018-03-16T06:10:10.037Z,15
2018-03-16T06:11:20.023Z,15
2018-03-16T06:12:29.201Z,15
2018-03-16T06:13:39.171Z,15
2018-03-16T06:14:48.856Z,20
2018-03-16T06:15:58.302Z,20
2018-03-16T06:17:08.323Z,20
2018-03-16T06:18:18.286Z,20
2018-03-16T06:19:27.781Z,20
2018-03-16T06:20:37.746Z,20
2018-03-16T06:21:46.968Z,25
2018-03-16T06:22:56.443Z,25
2018-03-16T06:24:06.153Z,25
2018-03-16T06:25:15.875Z,25
2018-03-16T06:26:25.583Z,25
2018-03-16T06:27:35.025Z,25
2018-03-16T06:28:45.030Z,25
2018-03-16T06:29:55.007Z,30
2018-03-16T06:31:04.446Z,30
2018-03-16T06:32:14.408Z,30
2018-03-16T06:33:23.586Z,35
2018-03-16T06:34:33.047Z,35
2018-03-16T06:35:42.755Z,35
2018-03-16T06:36:52.474Z,35
2018-03-16T06:38:02.177Z,40
2018-03-16T06:39:11.874Z,40
2018-03-16T06:40:21.579Z,40
2018-03-16T06:41:30.511Z,40
2018-03-16T06:42:40.492Z,40
2018-03-16T06:43:50.427Z,45
2018-03-16T06:45:00.806Z,45
2018-03-16T06:46:10.340Z,40
2018-03-16T06:47:20.299Z,40
2018-03-16T06:48:30.249Z,40
2018-03-16T06:49:40.206Z,40
2018-03-16T06:50:49.907Z,40
2018-03-16T06:52:00.103Z,45
2018-03-16T06:53:10.073Z,45
2018-03-16T06:54:20.038Z,45
2018-03-16T06:55:30.001Z,45
2018-03-16T06:56:39.439Z,50
2018-03-16T06:57:49.157Z,50
2018-03-16T06:58:58.881Z,50
2018-03-16T07:00:08.867Z,45
2018-03-16T07:01:18.845Z,45
2018-03-16T07:02:28.283Z,45
2018-03-16T07:03:38.247Z,45
2018-03-16T07:04:47.941Z,45
2018-03-16T07:05:57.918Z,45
2018-03-16T07:07:07.898Z,45
2018-03-16T07:08:17.347Z,50
2018-03-16T07:09:27.313Z,50
2018-03-16T07:10:36.792Z,50
2018-03-16T07:11:45.973Z,50
2018-03-16T07:12:55.676Z,50
2018-03-16T07:14:05.127Z,55
2018-03-16T07:15:14.313Z,55
2018-03-16T07:16:24.318Z,55
2018-03-16T07:17:33.854Z,55
2018-03-16T07:18:43.587Z,60
2018-03-16T07:19:53.041Z,60
2018-03-16T07:21:02.744Z,60
2018-03-16T07:22:12.443Z,55
2018-03-16T07:23:22.510Z,50
2018-03-16T07:24:31.955Z,50
2018-03-16T07:25:41.914Z,55
2018-03-16T07:26:51.632Z,55
2018-03-16T07:28:01.347Z,55
2018-03-16T07:29:10.535Z,55
2018-03-16T07:30:20.518Z,60
2018-03-16T07:31:30.239Z,60
2018-03-16T07:32:39.686Z,60
2018-03-16T07:33:49.394Z,60
2018-03-16T07:34:59.125Z,60
2018-03-16T07:36:08.571Z,60
2018-03-16T07:37:18.687Z,60
2018-03-16T07:38:28.395Z,65
2018-03-16T07:39:38.385Z,70
2018-03-16T07:40:48.348Z,70
2018-03-16T07:41:58.323Z,75
2018-03-16T07:43:08.285Z,80
2018-03-16T07:44:18.006Z,80
2018-03-16T07:45:27.979Z,80
2018-03-16T07:46:37.949Z,80
2018-03-16T07:47:47.485Z,80
2018-03-16T07:48:57.188Z,80
2018-03-16T07:50:07.166Z,85
2018-03-16T07:51:16.615Z,85
2018-03-16T07:52:26.320Z,90
2018-03-16T07:53:36.023Z,95
2018-03-16T07:54:46.010Z,100
2018-03-16T07:55:55.991Z,105
2018-03-16T07:57:05.991Z,110
2018-03-16T07:58:15.961Z,105
2018-03-16T07:59:25.939Z,110
2018-03-16T08:00:35.903Z,110
2018-03-16T08:01:45.872Z,110
2018-03-16T08:02:55.844Z,110
2018-03-16T08:04:05.813Z,110
2018-03-16T08:05:15.779Z,115
2018-03-16T08:06:25.748Z,115
2018-03-16T08:07:35.812Z,120
2018-03-16T08:08:45.571Z,125
2018-03-16T08:09:55.043Z,125
2018-03-16T08:11:04.749Z,130
2018-03-16T08:12:14.454Z,130
2018-03-16T08:13:24.440Z,135
2018-03-16T08:14:34.677Z,145
2018-03-16T08:15:44.665Z,150
2018-03-16T08:16:54.422Z,150
2018-03-16T08:18:04.149Z,150
2018-03-16T08:19:13.934Z,150
2018-03-16T08:20:23.926Z,145
2018-03-16T08:21:33.920Z,140
2018-03-16T08:22:43.899Z,135
2018-03-16T08:23:53.886Z,130
2018-03-16T08:25:03.854Z,125
2018-03-16T08:26:13.886Z,115
2018-03-16T08:27:23.876Z,120
2018-03-16T08:28:33.696Z,110
2018-03-16T08:29:43.732Z,115
2018-03-16T08:30:53.195Z,110
2018-03-16T08:32:02.916Z,110
2018-03-16T08:33:12.630Z,110
2018-03-16T08:34:22.610Z,110
2018-03-16T08:35:32.624Z,110
2018-03-16T08:36:42.601Z,110
2018-03-16T08:37:52.589Z,110
2018-03-16T08:39:02.299Z,110
2018-03-16T08:40:11.774Z,105
2018-03-16T08:41:21.221Z,105
2018-03-16T08:42:30.961Z,100
2018-03-16T08:43:40.924Z,100
2018-03-16T08:44:50.626Z,100
2018-03-16T08:46:00.496Z,100
2018-03-16T08:47:10.228Z,95
2018-03-16T08:48:20.235Z,95
2018-03-16T08:49:30.221Z,95
2018-03-16T08:50:39.945Z,95
2018-03-16T08:51:49.398Z,90
2018-03-16T08:52:59.184Z,95
2018-03-16T08:54:08.915Z,90
2018-03-16T08:55:18.370Z,95
2018-03-16T08:56:28.072Z,95
2018-03-16T08:57:38.035Z,95
2018-03-16T08:58:47.761Z,100
2018-03-16T08:59:57.779Z,105
2018-03-16T09:01:06.704Z,100
2018-03-16T09:02:16.676Z,115
2018-03-16T09:03:26.146Z,120
2018-03-16T09:04:35.866Z,130
2018-03-16T09:05:45.589Z,140
2018-03-16T09:06:55.304Z,135
2018-03-16T09:08:05.285Z,145
2018-03-16T09:09:15.264Z,155
2018-03-16T09:10:25.260Z,155
2018-03-16T09:11:34.955Z,155
2018-03-16T09:12:44.415Z,160
2018-03-16T09:13:54.388Z,160
2018-03-16T09:15:04.351Z,160
2018-03-16T09:16:14.327Z,160
2018-03-16T09:17:24.034Z,160
2018-03-16T09:18:33.746Z,150
2018-03-16T09:19:43.742Z,145
2018-03-16T09:20:53.713Z,140
2018-03-16T09:22:03.174Z,140
2018-03-16T09:23:12.927Z,135
2018-03-16T09:24:22.624Z,130
2018-03-16T09:25:32.487Z,130
2018-03-16T09:26:42.488Z,140
2018-03-16T09:27:52.205Z,135
2018-03-16T09:29:01.649Z,135
2018-03-16T09:30:11.359Z,140
2018-03-16T09:31:21.072Z,140
2018-03-16T09:32:30.520Z,140
2018-03-16T09:33:40.224Z,140
2018-03-16T09:34:49.979Z,130
2018-03-16T09:35:59.984Z,130
2018-03-16T09:37:09.699Z,135
2018-03-16T09:38:19.411Z,130
2018-03-16T09:39:28.885Z,125
2018-03-16T09:40:38.580Z,125
2018-03-16T09:41:48.552Z,125
2018-03-16T09:42:58.248Z,125
2018-03-16T09:44:07.685Z,125
2018-03-16T09:45:17.653Z,130
2018-03-16T09:46:27.343Z,130
2018-03-16T09:47:36.784Z,135
2018-03-16T09:48:46.023Z,135
2018-03-16T09:49:55.975Z,135
2018-03-16T09:51:05.694Z,140
2018-03-16T09:52:15.136Z,145
2018-03-16T09:53:25.117Z,145
2018-03-16T09:54:34.823Z,150
2018-03-16T09:55:44.784Z,145
2018-03-16T09:56:54.225Z,145
2018-03-16T09:58:03.698Z,145
2018-03-16T09:59:13.180Z,140
2018-03-16T10:00:22.636Z,140
2018-03-16T10:01:32.615Z,145
2018-03-16T10:02:42.595Z,145
2018-03-16T10:03:52.594Z,150
2018-03-16T10:05:02.092Z,150
2018-03-16T10:06:12.075Z,150
2018-03-16T10:07:22.071Z,150
2018-03-16T10:08:31.791Z,160
2018-03-16T10:09:41.864Z,165
2018-03-16T10:10:51.091Z,170
2018-03-16T10:12:00.930Z,170
2018-03-16T10:13:10.912Z,170
2018-03-16T10:14:20.862Z,170
2018-03-16T10:15:30.841Z,170
2018-03-16T10:16:40.836Z,170
2018-03-16T10:17:50.636Z,170
2018-03-16T10:19:00.630Z,165
2018-03-16T10:20:10.599Z,160
2018-03-16T10:21:20.296Z,155
2018-03-16T10:22:29.998Z,155
2018-03-16T10:23:39.707Z,160
2018-03-16T10:24:49.415Z,160
2018-03-16T10:25:59.138Z,160
2018-03-16T10:27:09.111Z,160
2018-03-16T10:28:18.820Z,155
2018-03-16T10:29:28.785Z,155
2018-03-16T10:30:38.755Z,155
2018-03-16T10:31:48.748Z,155
2018-03-16T10:32:58.461Z,160
2018-03-16T10:34:08.419Z,165
2018-03-16T10:35:18.131Z,165
2018-03-16T10:36:27.581Z,165
2018-03-16T10:37:37.549Z,160
2018-03-16T10:38:47.269Z,170
2018-03-16T10:39:57.277Z,170
2018-03-16T10:41:07.262Z,165
2018-03-16T10:42:17.269Z,160
2018-03-16T10:43:27.265Z,165
2018-03-16T10:44:36.979Z,165
2018-03-16T10:45:46.774Z,165
2018-03-16T10:46:56.471Z,160
2018-03-16T10:48:06.449Z,160
2018-03-16T10:49:16.161Z,155
2018-03-16T10:50:25.874Z,155
2018-03-16T10:51:35.848Z,155
2018-03-16T10:52:45.334Z,155
2018-03-16T10:53:55.299Z,155
2018-03-16T10:55:05.278Z,155
2018-03-16T10:56:15.248Z,155
2018-03-16T10:57:24.960Z,155
2018-03-16T10:58:34.942Z,160
2018-03-16T10:59:44.681Z,160
2018-03-16T11:00:54.639Z,160
2018-03-16T11:02:04.350Z,165
2018-03-16T11:03:14.049Z,170
2018-03-16T11:04:23.774Z,175
2018-03-16T11:05:33.717Z,170
2018-03-16T11:06:43.472Z,170
2018-03-16T11:07:53.206Z,170
2018-03-16T11:09:02.658Z,170
2018-03-16T11:10:11.838Z,175
2018-03-16T11:11:21.595Z,175
2018-03-16T11:12:31.060Z,175
2018-03-16T11:13:40.793Z,175
2018-03-16T11:14:50.524Z,175
2018-03-16T11:15:59.965Z,175
2018-03-16T11:17:09.718Z,180
2018-03-16T11:18:19.193Z,185
2018-03-16T11:19:29.190Z,185
2018-03-16T11:20:38.947Z,185
2018-03-16T11:21:48.422Z,190
2018-03-16T11:22:58.307Z,190
2018-03-16T11:24:08.316Z,190
2018-03-16T11:25:18.058Z,190
2018-03-16T11:26:28.063Z,195
2018-03-16T11:27:37.837Z,195
2018-03-16T11:28:47.604Z,200
2018-03-16T11:29:57.062Z,210
2018-03-16T11:31:06.790Z,210
2018-03-16T11:32:16.575Z,210
2018-03-16T11:33:26.297Z,210
2018-03-16T11:34:36.016Z,210
2018-03-16T11:35:45.729Z,210
2018-03-16T11:36:54.938Z,215
2018-03-16T11:38:04.941Z,215
2018-03-16T11:39:14.666Z,220
2018-03-16T11:40:24.662Z,220
2018-03-16T11:41:34.654Z,220
2018-03-16T11:42:44.623Z,220
2018-03-16T11:43:54.386Z,220
2018-03-16T11:45:04.370Z,215
2018-03-16T11:46:14.551Z,210
2018-03-16T11:47:24.530Z,200
2018-03-16T11:48:34.527Z,195
2018-03-16T11:49:44.518Z,190
2018-03-16T11:50:54.230Z,195
2018-03-16T11:52:03.947Z,195
2018-03-16T11:53:13.655Z,195
2018-03-16T11:54:23.036Z,190
2018-03-16T11:55:32.228Z,190
2018-03-16T11:56:42.232Z,185
2018-03-16T11:57:51.942Z,185
2018-03-16T11:59:01.399Z,185
2018-03-16T12:00:11.373Z,190
2018-03-16T12:01:21.064Z,190
2018-03-16T12:02:30.793Z,190
2018-03-16T12:03:40.490Z,190
2018-03-16T12:04:50.201Z,190
2018-03-16T12:05:59.917Z,190
2018-03-16T12:07:09.618Z,190
2018-03-16T12:08:19.599Z,185
2018-03-16T12:09:29.571Z,180
2018-03-16T12:10:39.549Z,180
2018-03-16T12:11:49.262Z,180
2018-03-16T12:12:59.011Z,175
2018-03-16T12:14:09.002Z,170
2018-03-16T12:15:18.699Z,175
2018-03-16T12:16:28.679Z,170
2018-03-16T12:17:38.379Z,175
2018-03-16T12:18:48.357Z,165
2018-03-16T12:19:58.064Z,160
2018-03-16T12:21:08.028Z,155
2018-03-16T12:22:17.986Z,150
2018-03-16T12:23:27.682Z,150
2018-03-16T12:24:37.702Z,150
2018-03-16T12:25:47.140Z,145
2018-03-16T12:26:56.855Z,145
2018-03-16T12:28:06.288Z,145
2018-03-16T12:29:16.260Z,145
2018-03-16T12:30:26.229Z,145
2018-03-16T12:31:36.198Z,145
2018-03-16T12:32:45.654Z,140
2018-03-16T12:33:55.380Z,135
2018-03-16T12:35:05.108Z,145
2018-03-16T12:36:14.581Z,145
2018-03-16T12:37:24.573Z,145
2018-03-16T12:38:34.156Z,145
2018-03-16T12:39:43.868Z,135
2018-03-16T12:40:53.659Z,145
2018-03-16T12:42:03.130Z,145
2018-03-16T12:43:12.585Z,145
2018-03-16T12:44:22.581Z,155
2018-03-16T12:45:32.532Z,150
2018-03-16T12:46:42.490Z,145
2018-03-16T12:47:51.942Z,150
2018-03-16T12:49:01.923Z,145
2018-03-16T12:50:11.099Z,150
2018-03-16T12:51:20.800Z,150
2018-03-16T12:52:30.513Z,150
2018-03-16T12:53:40.483Z,150
2018-03-16T12:54:50.181Z,155
2018-03-16T12:55:59.874Z,150
2018-03-16T12:57:09.857Z,145
2018-03-16T12:58:19.296Z,145
2018-03-16T12:59:28.745Z,145
2018-03-16T13:00:38.444Z,140
2018-03-16T13:01:48.156Z,140
2018-03-16T13:02:57.366Z,135
2018-03-16T13:04:06.814Z,145
2018-03-16T13:05:16.539Z,130
2018-03-16T13:06:26.526Z,130
2018-03-16T13:07:35.985Z,135
2018-03-16T13:08:45.947Z,135
2018-03-16T13:09:55.665Z,130
2018-03-16T13:11:05.638Z,130
2018-03-16T13:12:15.647Z,140
2018-03-16T13:13:25.361Z,130
2018-03-16T13:14:35.331Z,125
2018-03-16T13:15:45.048Z,125
2018-03-16T13:16:55.020Z,130
2018-03-16T13:18:04.737Z,120
2018-03-16T13:19:14.876Z,130
2018-03-16T13:20:24.909Z,130
2018-03-16T13:21:34.373Z,125
2018-03-16T13:22:43.565Z,120
2018-03-16T13:23:53.011Z,125
2018-03-16T13:25:02.727Z,130
2018-03-16T13:26:11.917Z,125
2018-03-16T13:27:21.622Z,120
2018-03-16T13:28:31.338Z,125
2018-03-16T13:29:41.065Z,130
2018-03-16T13:30:51.053Z,120
2018-03-16T13:32:01.011Z,120
2018-03-16T13:33:10.885Z,110
2018-03-16T13:34:20.070Z,115
2018-03-16T13:35:29.512Z,110
2018-03-16T13:36:39.486Z,110
2018-03-16T13:37:49.456Z,110
2018-03-16T13:38:59.674Z,110
2018-03-16T13:40:09.631Z,110
2018-03-16T13:41:19.329Z,110
2018-03-16T13:42:29.293Z,110
2018-03-16T13:43:39.258Z,110
2018-03-16T13:44:48.988Z,110
2018-03-16T13:45:58.957Z,110
2018-03-16T13:47:08.940Z,100
2018-03-16T13:48:18.729Z,105
2018-03-16T13:49:28.199Z,100
2018-03-16T13:50:37.942Z,105
2018-03-16T13:51:47.419Z,110
2018-03-16T13:52:57.671Z,105
2018-03-16T13:54:07.707Z,105
2018-03-16T13:55:17.202Z,105
2018-03-16T13:56:27.201Z,105
2018-03-16T13:57:36.928Z,105
2018-03-16T13:58:46.654Z,105
2018-03-16T13:59:56.115Z,105
2018-03-16T14:01:05.815Z,105
2018-03-16T14:02:15.267Z,105
2018-03-16T14:03:25.259Z,110
2018-03-16T14:04:35.494Z,105
2018-03-16T14:05:45.457Z,105
2018-03-16T14:06:54.910Z,105
2018-03-16T14:08:04.613Z,105
2018-03-16T14:09:14.597Z,105
2018-03-16T14:10:23.851Z,105
2018-03-16T14:11:33.295Z,100
2018-03-16T14:12:43.011Z,100
2018-03-16T14:13:52.717Z,95
2018-03-16T14:15:02.425Z,95
2018-03-16T14:16:11.909Z,95
2018-03-16T14:17:21.887Z,95
2018-03-16T14:18:31.875Z,95
2018-03-16T14:19:41.058Z,95
2018-03-16T14:20:51.020Z,95
2018-03-16T14:22:00.730Z,95
2018-03-16T14:23:09.905Z,95
2018-03-16T14:24:19.614Z,95
2018-03-16T14:25:29.584Z,95
2018-03-16T14:26:38.781Z,95
2018-03-16T14:27:48.765Z,90
2018-03-16T14:28:58.463Z,90
2018-03-16T14:30:08.422Z,95
2018-03-16T14:31:18.127Z,95
2018-03-16T14:32:28.083Z,95
2018-03-16T14:33:38.045Z,95
2018-03-16T14:34:48.034Z,95
2018-03-16T14:35:58.022Z,95
2018-03-16T14:37:07.479Z,95
2018-03-16T14:38:17.492Z,95
2018-03-16T14:39:27.447Z,100
2018-03-16T14:40:37.156Z,100
2018-03-16T14:41:46.900Z,100
2018-03-16T14:42:56.861Z,95
2018-03-16T14:44:06.821Z,95
2018-03-16T14:45:16.887Z,95
2018-03-16T14:46:26.610Z,95
2018-03-16T14:47:36.598Z,95
2018-03-16T14:48:46.332Z,95
2018-03-16T14:49:55.513Z,95
2018-03-16T14:51:05.467Z,100
2018-03-16T14:52:15.175Z,100
2018-03-16T14:53:25.144Z,105
2018-03-16T14:54:35.104Z,105
2018-03-16T14:55:45.071Z,105
2018-03-16T14:56:55.030Z,110
2018-03-16T14:58:05.007Z,110
2018-03-16T14:59:15.039Z,110
2018-03-16T15:00:24.747Z,110
2018-03-16T15:01:34.469Z,110
2018-03-16T15:02:44.183Z,110
2018-03-16T15:03:53.887Z,110
2018-03-16T15:05:03.342Z,110
2018-03-16T15:06:12.803Z,115
2018-03-16T15:07:22.507Z,115
2018-03-16T15:08:31.943Z,115
2018-03-16T15:09:41.377Z,120
2018-03-16T15:10:51.348Z,115
2018-03-16T15:12:01.050Z,115
2018-03-16T15:13:10.999Z,115
2018-03-16T15:14:20.712Z,115
2018-03-16T15:15:30.676Z,115
2018-03-16T15:16:40.646Z,115
2018-03-16T15:17:50.113Z,115
2018-03-16T15:19:00.118Z,115
2018-03-16T15:20:10.107Z,115
2018-03-16T15:21:19.809Z,115
2018-03-16T15:22:29.516Z,110
2018-03-16T15:23:39.241Z,110
2018-03-16T15:24:48.980Z,105
2018-03-16T15:25:58.974Z,100
2018-03-16T15:27:08.939Z,100
2018-03-16T15:28:18.908Z,100
2018-03-16T15:29:28.613Z,95
2018-03-16T15:30:38.564Z,100
2018-03-16T15:31:48.536Z,95
2018-03-16T15:32:57.722Z,95
2018-03-16T15:34:07.440Z,90
2018-03-16T15:35:16.890Z,90
2018-03-16T15:36:26.862Z,90
2018-03-16T15:37:36.049Z,90
2018-03-16T15:38:46.100Z,85
2018-03-16T15:39:55.558Z,85
2018-03-16T15:41:05.549Z,80
2018-03-16T15:42:15.506Z,80
2018-03-16T15:43:24.697Z,80
2018-03-16T15:44:34.658Z,80
2018-03-16T15:45:44.618Z,80
2018-03-16T15:46:54.342Z,80
2018-03-16T15:48:04.329Z,80
2018-03-16T15:49:14.238Z,75
2018-03-16T15:50:24.200Z,75
2018-03-16T15:51:34.187Z,75
2018-03-16T15:52:44.178Z,75
2018-03-16T15:53:54.140Z,75
2018-03-16T15:55:04.112Z,80
2018-03-16T15:56:14.089Z,75
2018-03-16T15:57:23.796Z,75
2018-03-16T15:58:33.769Z,70
2018-03-16T15:59:43.739Z,70
2018-03-16T16:00:53.467Z,70
2018-03-16T16:02:03.463Z,70
2018-03-16T16:03:13.435Z,70
2018-03-16T16:04:23.403Z,70
2018-03-16T16:05:33.370Z,65
2018-03-16T16:06:43.394Z,65
2018-03-16T16:07:53.434Z,60
2018-03-16T16:09:03.394Z,60
2018-03-16T16:10:13.098Z,55
2018-03-16T16:11:22.807Z,55
2018-03-16T16:12:32.798Z,50
2018-03-16T16:13:42.751Z,50
2018-03-16T16:14:52.465Z,45
2018-03-16T16:16:02.445Z,45
2018-03-16T16:17:12.447Z,40
2018-03-16T16:18:22.407Z,40
2018-03-16T16:19:31.856Z,35
2018-03-16T16:20:41.312Z,35
2018-03-16T16:21:51.036Z,35
2018-03-16T16:23:00.215Z,30
2018-03-16T16:24:09.954Z,30
2018-03-16T16:25:19.698Z,30
2018-03-16T16:26:29.685Z,30
2018-03-16T16:27:39.667Z,25
2018-03-16T16:28:49.638Z,25
2018-03-16T16:29:59.872Z,25
2018-03-16T16:31:09.585Z,25
2018-03-16T16:32:19.293Z,20